This is the latest recevied weather packets stored in our database for station/object OE2ATN. If no packets are shown the sender has not sent any weather packets the latest 10 day(s).
| Time | Temp. | Humidity | Pressure | Rain* | Wind** | Luminosity | Snow |
|---|---|---|---|---|---|---|---|
| 1777937379 | 11.11° C | 68% | 1019.8 hPa | 0 mm | - | - | - |
| 1777937079 | 11.11° C | 67% | 1019.8 hPa | 0 mm | - | - | - |
| 1777936779 | 11.11° C | 67% | 1019.8 hPa | 0 mm | - | - | - |
| 1777936479 | 11.11° C | 66% | 1019.9 hPa | 0 mm | - | - | - |
| 1777936179 | 11.67° C | 65% | 1020 hPa | 0 mm | - | - | - |
| 1777935879 | 11.67° C | 64% | 1019.9 hPa | 0 mm | - | - | - |
| 1777935578 | 11.67° C | 64% | 1019.9 hPa | 0 mm | - | - | - |
| 1777935278 | 11.67° C | 64% | 1020 hPa | 0 mm | - | - | - |
| 1777934978 | 12.22° C | 64% | 1020.1 hPa | 0 mm | - | - | - |
| 1777934678 | 11.67° C | 64% | 1020 hPa | 0 mm | - | - | - |
| 1777934378 | 12.22° C | 64% | 1020.1 hPa | 0 mm | - | - | - |
| 1777934078 | 12.22° C | 62% | 1020.1 hPa | 0 mm | - | - | - |
| 1777933778 | 12.78° C | 59% | 1020.1 hPa | 0 mm | - | - | - |
| 1777933478 | 13.33° C | 59% | 1020.1 hPa | 0 mm | - | - | - |
| 1777933177 | 13.89° C | 56% | 1020.1 hPa | 0 mm | - | - | - |
| 1777932878 | 13.89° C | 55% | 1020.1 hPa | 0 mm | - | - | - |
| 1777932578 | 13.33° C | 57% | 1020.1 hPa | 0 mm | - | - | - |
| 1777932278 | 13.33° C | 59% | 1020.2 hPa | 0 mm | - | - | - |
| 1777931977 | 13.33° C | 58% | 1020.2 hPa | 0 mm | - | - | - |
| 1777931677 | 13.33° C | 57% | 1020.2 hPa | 0 mm | - | - | - |
| 1777931377 | 13.33° C | 58% | 1020.2 hPa | 0 mm | - | - | - |
| 1777931077 | 13.33° C | 58% | 1020.2 hPa | 0 mm | - | - | - |
| 1777930777 | 12.78° C | 60% | 1020.2 hPa | 0 mm | - | - | - |
| 1777930477 | 13.33° C | 59% | 1020.2 hPa | 0 mm | - | - | - |
| 1777930177 | 13.33° C | 58% | 1020.3 hPa | 0 mm | - | - | - |
* Rain latest hour (hover to see other rain measurements)
** Current wind speed in m/s (hover to see current wind gust speed)